KFUL

Fullerton Municipal Airport

Fullerton, California, USA
METAR KFUL 230053Z 19006KT 10SM CLR 21/14 A2983 RMK AO2 SLP101 T02110144
Observed Flight Rules
Oct-23 @ 00:53 UTC (17 minutes ago) Visual Flight Rules
Wind Visibility Clouds
190° at 6 knots 10 miles
  • Clear skies
Temperatures Readings
Current 21°C / 70°F
Dewpoint 14°C / 57°F
Humidity 64%
Altimeter 29.83" Hg
Pressure 1010.1 hPa
Elevation 35
METAR KFUL 230053Z 19006KT 10SM CLR 21/14 A2983 RMK AO2 SLP101 T02110144
Observed Flight Rules
Oct-23 @ 00:53 UTC
(17 minutes ago)
VFR
Wind Visibility
190° at 6 knots 10 miles
Clouds
  • Clear skies
Temperature Dewpoint
21°C / 70°F 14°C / 57°F
Humidity Altimeter Pressure
64% 29.83" Hg 1010.1 hPa